sensor_id;sensor_type;location;lat;lon;timestamp;temperature;humidity
292;DHT22;23311;48.776;9.162;2022-12-07T00:01:19;4.10;95.50
292;DHT22;23311;48.776;9.162;2022-12-07T00:03:49;4.20;95.50
292;DHT22;23311;48.776;9.162;2022-12-07T00:06:18;4.20;95.50
292;DHT22;23311;48.776;9.162;2022-12-07T00:08:46;4.20;95.50
292;DHT22;23311;48.776;9.162;2022-12-07T00:11:18;4.20;95.50
292;DHT22;23311;48.776;9.162;2022-12-07T00:13:46;4.10;95.50
292;DHT22;23311;48.776;9.162;2022-12-07T00:16:16;4.20;95.50
292;DHT22;23311;48.776;9.162;2022-12-07T00:18:45;4.20;95.50
292;DHT22;23311;48.776;9.162;2022-12-07T00:21:14;4.10;95.50
292;DHT22;23311;48.776;9.162;2022-12-07T00:23:44;4.10;95.50
292;DHT22;23311;48.776;9.162;2022-12-07T00:26:14;4.10;95.50
292;DHT22;23311;48.776;9.162;2022-12-07T00:28:46;4.10;95.50
292;DHT22;23311;48.776;9.162;2022-12-07T00:31:16;4.20;95.50
292;DHT22;23311;48.776;9.162;2022-12-07T00:33:45;4.20;95.50
292;DHT22;23311;48.776;9.162;2022-12-07T00:36:16;4.20;95.50
292;DHT22;23311;48.776;9.162;2022-12-07T00:38:52;4.20;95.50
292;DHT22;23311;48.776;9.162;2022-12-07T00:41:22;4.10;95.50
292;DHT22;23311;48.776;9.162;2022-12-07T00:43:52;4.10;95.50
292;DHT22;23311;48.776;9.162;2022-12-07T00:46:21;4.10;95.50
292;DHT22;23311;48.776;9.162;2022-12-07T00:48:50;4.10;95.50
292;DHT22;23311;48.776;9.162;2022-12-07T00:51:20;4.10;95.50
292;DHT22;23311;48.776;9.162;2022-12-07T00:53:49;4.10;95.50
292;DHT22;23311;48.776;9.162;2022-12-07T00:56:20;4.10;95.50
292;DHT22;23311;48.776;9.162;2022-12-07T00:58:54;4.00;95.50
292;DHT22;23311;48.776;9.162;2022-12-07T01:01:24;4.00;95.50
292;DHT22;23311;48.776;9.162;2022-12-07T01:03:53;4.00;95.50
292;DHT22;23311;48.776;9.162;2022-12-07T01:06:22;4.00;95.50
292;DHT22;23311;48.776;9.162;2022-12-07T01:08:51;4.00;95.50
292;DHT22;23311;48.776;9.162;2022-12-07T01:11:21;4.00;95.50
292;DHT22;23311;48.776;9.162;2022-12-07T01:13:50;4.00;95.50
292;DHT22;23311;48.776;9.162;2022-12-07T01:16:20;3.90;95.50
292;DHT22;23311;48.776;9.162;2022-12-07T01:18:50;3.90;95.50
292;DHT22;23311;48.776;9.162;2022-12-07T01:21:19;3.90;95.50
292;DHT22;23311;48.776;9.162;2022-12-07T01:23:48;3.80;95.50
292;DHT22;23311;48.776;9.162;2022-12-07T01:26:18;3.80;95.50
292;DHT22;23311;48.776;9.162;2022-12-07T01:28:47;3.80;95.50
292;DHT22;23311;48.776;9.162;2022-12-07T01:31:17;3.80;95.50
292;DHT22;23311;48.776;9.162;2022-12-07T01:33:50;3.80;95.50
292;DHT22;23311;48.776;9.162;2022-12-07T01:36:20;3.80;95.50
292;DHT22;23311;48.776;9.162;2022-12-07T01:38:51;3.80;95.50
292;DHT22;23311;48.776;9.162;2022-12-07T01:41:20;3.70;95.50
292;DHT22;23311;48.776;9.162;2022-12-07T01:44:10;3.70;95.50
292;DHT22;23311;48.776;9.162;2022-12-07T01:46:39;3.70;95.50
292;DHT22;23311;48.776;9.162;2022-12-07T01:49:12;3.70;95.50
292;DHT22;23311;48.776;9.162;2022-12-07T01:51:42;3.70;95.50
292;DHT22;23311;48.776;9.162;2022-12-07T01:54:12;3.70;95.50
292;DHT22;23311;48.776;9.162;2022-12-07T01:56:46;3.80;95.50
292;DHT22;23311;48.776;9.162;2022-12-07T01:59:16;3.80;95.50
292;DHT22;23311;48.776;9.162;2022-12-07T02:01:45;3.80;95.50
292;DHT22;23311;48.776;9.162;2022-12-07T02:04:15;3.70;95.50
292;DHT22;23311;48.776;9.162;2022-12-07T02:06:43;3.80;95.50
292;DHT22;23311;48.776;9.162;2022-12-07T02:09:12;3.80;95.50
292;DHT22;23311;48.776;9.162;2022-12-07T02:11:40;3.80;95.50
292;DHT22;23311;48.776;9.162;2022-12-07T02:14:09;3.80;95.50
292;DHT22;23311;48.776;9.162;2022-12-07T02:16:46;3.80;95.50
292;DHT22;23311;48.776;9.162;2022-12-07T02:19:52;3.70;95.50
292;DHT22;23311;48.776;9.162;2022-12-07T02:25:41;3.60;95.50
292;DHT22;23311;48.776;9.162;2022-12-07T02:28:20;3.60;95.50
292;DHT22;23311;48.776;9.162;2022-12-07T02:30:58;3.70;95.50
292;DHT22;23311;48.776;9.162;2022-12-07T02:33:33;3.70;95.50
292;DHT22;23311;48.776;9.162;2022-12-07T02:36:06;3.60;95.50
292;DHT22;23311;48.776;9.162;2022-12-07T02:38:40;3.50;95.50
292;DHT22;23311;48.776;9.162;2022-12-07T02:41:13;3.60;95.50
292;DHT22;23311;48.776;9.162;2022-12-07T02:43:47;3.60;95.50
292;DHT22;23311;48.776;9.162;2022-12-07T02:46:23;3.60;95.50
292;DHT22;23311;48.776;9.162;2022-12-07T02:48:53;3.70;95.50
292;DHT22;23311;48.776;9.162;2022-12-07T02:51:22;3.70;95.50
292;DHT22;23311;48.776;9.162;2022-12-07T02:53:50;3.70;95.50
292;DHT22;23311;48.776;9.162;2022-12-07T02:56:24;3.70;95.50
292;DHT22;23311;48.776;9.162;2022-12-07T02:59:02;3.70;95.50
292;DHT22;23311;48.776;9.162;2022-12-07T03:01:41;3.70;95.50
292;DHT22;23311;48.776;9.162;2022-12-07T03:04:23;3.70;95.50
292;DHT22;23311;48.776;9.162;2022-12-07T03:06:57;3.70;95.50
292;DHT22;23311;48.776;9.162;2022-12-07T03:09:32;3.70;95.50
292;DHT22;23311;48.776;9.162;2022-12-07T03:12:08;3.70;95.50
292;DHT22;23311;48.776;9.162;2022-12-07T03:14:41;3.70;95.50
292;DHT22;23311;48.776;9.162;2022-12-07T03:17:14;3.70;95.50
292;DHT22;23311;48.776;9.162;2022-12-07T03:19:45;3.70;95.50
292;DHT22;23311;48.776;9.162;2022-12-07T03:22:14;3.70;95.50
292;DHT22;23311;48.776;9.162;2022-12-07T03:24:47;3.60;95.50
292;DHT22;23311;48.776;9.162;2022-12-07T03:27:21;3.60;95.50
292;DHT22;23311;48.776;9.162;2022-12-07T03:29:53;3.60;95.50
292;DHT22;23311;48.776;9.162;2022-12-07T03:32:27;3.70;95.50
292;DHT22;23311;48.776;9.162;2022-12-07T03:35:02;3.70;95.50
292;DHT22;23311;48.776;9.162;2022-12-07T03:37:35;3.70;95.50
292;DHT22;23311;48.776;9.162;2022-12-07T03:40:08;3.70;95.50
292;DHT22;23311;48.776;9.162;2022-12-07T03:42:39;3.70;95.50
292;DHT22;23311;48.776;9.162;2022-12-07T03:45:08;3.70;95.50
292;DHT22;23311;48.776;9.162;2022-12-07T03:47:44;3.70;95.50
292;DHT22;23311;48.776;9.162;2022-12-07T03:50:21;3.70;95.50
292;DHT22;23311;48.776;9.162;2022-12-07T03:52:54;3.70;95.50
292;DHT22;23311;48.776;9.162;2022-12-07T03:55:26;3.70;95.50
292;DHT22;23311;48.776;9.162;2022-12-07T03:57:58;3.70;95.50
292;DHT22;23311;48.776;9.162;2022-12-07T04:00:28;3.60;95.50
292;DHT22;23311;48.776;9.162;2022-12-07T04:02:58;3.60;95.50
292;DHT22;23311;48.776;9.162;2022-12-07T04:05:26;3.60;95.50
292;DHT22;23311;48.776;9.162;2022-12-07T04:07:54;3.50;95.50
292;DHT22;23311;48.776;9.162;2022-12-07T04:10:22;3.60;95.50
292;DHT22;23311;48.776;9.162;2022-12-07T04:12:50;3.50;95.50
292;DHT22;23311;48.776;9.162;2022-12-07T04:15:18;3.50;95.50
292;DHT22;23311;48.776;9.162;2022-12-07T04:17:46;3.40;95.50
292;DHT22;23311;48.776;9.162;2022-12-07T04:20:16;3.40;95.50
292;DHT22;23311;48.776;9.162;2022-12-07T04:22:44;3.40;95.50
292;DHT22;23311;48.776;9.162;2022-12-07T04:25:12;3.50;95.50
292;DHT22;23311;48.776;9.162;2022-12-07T04:27:40;3.50;95.50
292;DHT22;23311;48.776;9.162;2022-12-07T04:30:09;3.50;95.50
292;DHT22;23311;48.776;9.162;2022-12-07T04:32:37;3.50;95.50
292;DHT22;23311;48.776;9.162;2022-12-07T04:35:06;3.50;95.50
292;DHT22;23311;48.776;9.162;2022-12-07T04:37:35;3.60;95.50
292;DHT22;23311;48.776;9.162;2022-12-07T04:40:07;3.60;95.50
292;DHT22;23311;48.776;9.162;2022-12-07T04:42:37;3.60;95.50
292;DHT22;23311;48.776;9.162;2022-12-07T04:45:06;3.60;95.50
292;DHT22;23311;48.776;9.162;2022-12-07T04:47:35;3.70;95.50
292;DHT22;23311;48.776;9.162;2022-12-07T04:50:04;3.70;95.50
292;DHT22;23311;48.776;9.162;2022-12-07T04:52:32;3.70;95.50
292;DHT22;23311;48.776;9.162;2022-12-07T04:55:01;3.70;95.50
292;DHT22;23311;48.776;9.162;2022-12-07T04:57:29;3.70;95.50
292;DHT22;23311;48.776;9.162;2022-12-07T04:59:57;3.50;95.50
292;DHT22;23311;48.776;9.162;2022-12-07T05:02:26;3.50;95.50
292;DHT22;23311;48.776;9.162;2022-12-07T05:04:54;3.30;95.50
292;DHT22;23311;48.776;9.162;2022-12-07T05:07:22;3.20;95.50
292;DHT22;23311;48.776;9.162;2022-12-07T05:09:50;3.20;95.50
292;DHT22;23311;48.776;9.162;2022-12-07T05:12:19;3.30;95.50
292;DHT22;23311;48.776;9.162;2022-12-07T05:14:47;3.40;95.50
292;DHT22;23311;48.776;9.162;2022-12-07T05:17:15;3.30;95.50
292;DHT22;23311;48.776;9.162;2022-12-07T05:19:43;3.20;95.50
292;DHT22;23311;48.776;9.162;2022-12-07T05:22:11;3.20;95.50
292;DHT22;23311;48.776;9.162;2022-12-07T05:24:40;3.00;95.50
292;DHT22;23311;48.776;9.162;2022-12-07T05:27:08;2.90;95.50
292;DHT22;23311;48.776;9.162;2022-12-07T05:29:38;2.90;95.50
292;DHT22;23311;48.776;9.162;2022-12-07T05:32:06;2.80;95.50
292;DHT22;23311;48.776;9.162;2022-12-07T05:34:34;2.80;95.50
292;DHT22;23311;48.776;9.162;2022-12-07T05:37:02;2.80;95.50
292;DHT22;23311;48.776;9.162;2022-12-07T05:39:30;2.70;95.50
292;DHT22;23311;48.776;9.162;2022-12-07T05:41:58;2.50;95.50
292;DHT22;23311;48.776;9.162;2022-12-07T05:44:44;2.30;95.50
292;DHT22;23311;48.776;9.162;2022-12-07T05:47:13;2.10;95.50
292;DHT22;23311;48.776;9.162;2022-12-07T05:49:41;2.00;95.50
292;DHT22;23311;48.776;9.162;2022-12-07T05:52:09;2.10;95.50
292;DHT22;23311;48.776;9.162;2022-12-07T05:54:37;2.00;95.50
292;DHT22;23311;48.776;9.162;2022-12-07T05:57:05;2.10;95.50
292;DHT22;23311;48.776;9.162;2022-12-07T05:59:33;2.20;95.50
292;DHT22;23311;48.776;9.162;2022-12-07T06:02:04;2.30;95.50
292;DHT22;23311;48.776;9.162;2022-12-07T06:04:38;2.30;95.50
292;DHT22;23311;48.776;9.162;2022-12-07T06:07:07;2.30;95.50
292;DHT22;23311;48.776;9.162;2022-12-07T06:09:36;2.30;95.50
292;DHT22;23311;48.776;9.162;2022-12-07T06:12:05;2.40;95.50
292;DHT22;23311;48.776;9.162;2022-12-07T06:14:51;2.50;95.50
292;DHT22;23311;48.776;9.162;2022-12-07T06:17:20;2.70;95.50
292;DHT22;23311;48.776;9.162;2022-12-07T06:19:48;2.90;95.50
292;DHT22;23311;48.776;9.162;2022-12-07T06:22:17;2.80;95.50
292;DHT22;23311;48.776;9.162;2022-12-07T06:24:45;2.90;95.50
292;DHT22;23311;48.776;9.162;2022-12-07T06:27:13;2.80;95.50
292;DHT22;23311;48.776;9.162;2022-12-07T06:29:41;2.80;95.50
292;DHT22;23311;48.776;9.162;2022-12-07T06:32:09;2.80;95.50
292;DHT22;23311;48.776;9.162;2022-12-07T06:34:39;2.70;95.50
292;DHT22;23311;48.776;9.162;2022-12-07T06:37:07;2.80;95.50
292;DHT22;23311;48.776;9.162;2022-12-07T06:39:35;2.80;95.50
292;DHT22;23311;48.776;9.162;2022-12-07T06:42:04;2.80;95.50
292;DHT22;23311;48.776;9.162;2022-12-07T06:44:32;2.80;95.50
292;DHT22;23311;48.776;9.162;2022-12-07T06:47:00;2.90;95.50
292;DHT22;23311;48.776;9.162;2022-12-07T06:49:50;3.00;95.50
292;DHT22;23311;48.776;9.162;2022-12-07T06:52:18;3.10;95.50
292;DHT22;23311;48.776;9.162;2022-12-07T06:54:46;3.00;95.50
292;DHT22;23311;48.776;9.162;2022-12-07T06:57:14;3.00;95.50
292;DHT22;23311;48.776;9.162;2022-12-07T06:59:42;2.90;95.50
292;DHT22;23311;48.776;9.162;2022-12-07T07:02:10;2.90;95.50
292;DHT22;23311;48.776;9.162;2022-12-07T07:04:38;2.90;95.50
292;DHT22;23311;48.776;9.162;2022-12-07T07:07:08;2.90;95.50
292;DHT22;23311;48.776;9.162;2022-12-07T07:09:36;2.90;95.50
292;DHT22;23311;48.776;9.162;2022-12-07T07:12:04;2.90;95.50
292;DHT22;23311;48.776;9.162;2022-12-07T07:14:32;2.90;95.50
292;DHT22;23311;48.776;9.162;2022-12-07T07:17:00;3.00;95.50
292;DHT22;23311;48.776;9.162;2022-12-07T07:19:28;3.00;95.50
292;DHT22;23311;48.776;9.162;2022-12-07T07:21:56;2.90;95.50
292;DHT22;23311;48.776;9.162;2022-12-07T07:24:25;3.00;95.50
292;DHT22;23311;48.776;9.162;2022-12-07T07:26:53;3.10;95.50
292;DHT22;23311;48.776;9.162;2022-12-07T07:29:22;3.10;95.50
292;DHT22;23311;48.776;9.162;2022-12-07T07:31:50;3.10;95.50
292;DHT22;23311;48.776;9.162;2022-12-07T07:34:18;3.20;95.50
292;DHT22;23311;48.776;9.162;2022-12-07T07:36:46;3.20;95.50
292;DHT22;23311;48.776;9.162;2022-12-07T07:39:14;3.20;95.50
292;DHT22;23311;48.776;9.162;2022-12-07T07:41:43;3.20;95.50
292;DHT22;23311;48.776;9.162;2022-12-07T07:44:11;3.40;95.50
292;DHT22;23311;48.776;9.162;2022-12-07T07:46:40;3.50;95.50
292;DHT22;23311;48.776;9.162;2022-12-07T07:49:09;3.50;95.50
292;DHT22;23311;48.776;9.162;2022-12-07T07:51:37;3.50;95.50
292;DHT22;23311;48.776;9.162;2022-12-07T07:54:05;3.50;95.50
292;DHT22;23311;48.776;9.162;2022-12-07T07:56:33;3.50;95.50
292;DHT22;23311;48.776;9.162;2022-12-07T07:59:03;3.60;95.50
292;DHT22;23311;48.776;9.162;2022-12-07T08:01:31;3.60;95.50
292;DHT22;23311;48.776;9.162;2022-12-07T08:03:59;3.60;95.50
292;DHT22;23311;48.776;9.162;2022-12-07T08:06:28;3.70;95.50
292;DHT22;23311;48.776;9.162;2022-12-07T08:08:58;3.80;95.50
292;DHT22;23311;48.776;9.162;2022-12-07T08:11:26;3.90;95.50
292;DHT22;23311;48.776;9.162;2022-12-07T08:13:54;3.90;95.50
292;DHT22;23311;48.776;9.162;2022-12-07T08:16:24;3.80;95.50
292;DHT22;23311;48.776;9.162;2022-12-07T08:18:52;4.00;95.50
292;DHT22;23311;48.776;9.162;2022-12-07T08:21:20;4.00;95.50
292;DHT22;23311;48.776;9.162;2022-12-07T08:23:48;4.10;95.50
292;DHT22;23311;48.776;9.162;2022-12-07T08:26:16;4.10;95.50
292;DHT22;23311;48.776;9.162;2022-12-07T08:28:44;4.20;95.50
292;DHT22;23311;48.776;9.162;2022-12-07T08:31:15;4.10;95.50
292;DHT22;23311;48.776;9.162;2022-12-07T08:33:46;4.30;95.50
292;DHT22;23311;48.776;9.162;2022-12-07T08:36:15;4.40;95.50
292;DHT22;23311;48.776;9.162;2022-12-07T08:38:43;4.50;95.50
292;DHT22;23311;48.776;9.162;2022-12-07T08:41:31;4.50;95.50
292;DHT22;23311;48.776;9.162;2022-12-07T08:44:00;4.60;95.50
292;DHT22;23311;48.776;9.162;2022-12-07T08:46:31;4.50;95.50
292;DHT22;23311;48.776;9.162;2022-12-07T08:49:05;4.60;95.50
292;DHT22;23311;48.776;9.162;2022-12-07T08:51:35;4.80;95.50
292;DHT22;23311;48.776;9.162;2022-12-07T08:54:06;4.90;95.50
292;DHT22;23311;48.776;9.162;2022-12-07T08:56:35;5.00;95.50
292;DHT22;23311;48.776;9.162;2022-12-07T08:59:04;5.00;95.50
292;DHT22;23311;48.776;9.162;2022-12-07T09:01:33;5.10;95.50
292;DHT22;23311;48.776;9.162;2022-12-07T09:04:02;5.20;95.50
292;DHT22;23311;48.776;9.162;2022-12-07T09:06:30;5.30;95.50
292;DHT22;23311;48.776;9.162;2022-12-07T09:09:00;5.30;95.50
292;DHT22;23311;48.776;9.162;2022-12-07T09:11:29;5.40;95.50
292;DHT22;23311;48.776;9.162;2022-12-07T09:13:57;5.50;95.50
292;DHT22;23311;48.776;9.162;2022-12-07T09:16:25;5.50;95.50
292;DHT22;23311;48.776;9.162;2022-12-07T09:18:53;5.60;95.50
292;DHT22;23311;48.776;9.162;2022-12-07T09:21:22;5.40;95.50
292;DHT22;23311;48.776;9.162;2022-12-07T09:23:50;5.30;95.50
292;DHT22;23311;48.776;9.162;2022-12-07T09:26:19;5.30;95.50
292;DHT22;23311;48.776;9.162;2022-12-07T09:28:47;5.20;95.50
292;DHT22;23311;48.776;9.162;2022-12-07T09:31:15;5.20;95.50
292;DHT22;23311;48.776;9.162;2022-12-07T09:33:55;5.20;95.50
292;DHT22;23311;48.776;9.162;2022-12-07T09:36:25;5.60;95.50
292;DHT22;23311;48.776;9.162;2022-12-07T09:38:54;5.90;95.50
292;DHT22;23311;48.776;9.162;2022-12-07T09:41:23;6.00;95.50
292;DHT22;23311;48.776;9.162;2022-12-07T09:43:53;6.00;95.50
292;DHT22;23311;48.776;9.162;2022-12-07T09:46:24;6.10;95.50
292;DHT22;23311;48.776;9.162;2022-12-07T09:48:52;5.90;95.50
292;DHT22;23311;48.776;9.162;2022-12-07T09:51:22;5.70;95.50
292;DHT22;23311;48.776;9.162;2022-12-07T09:53:55;5.80;95.50
292;DHT22;23311;48.776;9.162;2022-12-07T09:56:24;6.00;95.50
292;DHT22;23311;48.776;9.162;2022-12-07T09:58:58;6.20;95.50
292;DHT22;23311;48.776;9.162;2022-12-07T10:01:29;6.30;95.50
292;DHT22;23311;48.776;9.162;2022-12-07T10:04:05;6.40;95.50
292;DHT22;23311;48.776;9.162;2022-12-07T10:06:36;6.40;95.50
292;DHT22;23311;48.776;9.162;2022-12-07T10:09:10;6.40;95.50
292;DHT22;23311;48.776;9.162;2022-12-07T10:11:58;6.60;95.50
292;DHT22;23311;48.776;9.162;2022-12-07T10:14:28;6.50;95.50
292;DHT22;23311;48.776;9.162;2022-12-07T10:17:30;6.60;95.50
292;DHT22;23311;48.776;9.162;2022-12-07T10:20:22;6.50;95.50
292;DHT22;23311;48.776;9.162;2022-12-07T10:22:57;6.60;95.50
292;DHT22;23311;48.776;9.162;2022-12-07T10:25:29;6.70;95.50
292;DHT22;23311;48.776;9.162;2022-12-07T10:28:00;6.50;95.50
292;DHT22;23311;48.776;9.162;2022-12-07T10:30:30;6.30;95.50
292;DHT22;23311;48.776;9.162;2022-12-07T10:32:58;6.50;95.50
292;DHT22;23311;48.776;9.162;2022-12-07T10:35:27;6.80;95.50
292;DHT22;23311;48.776;9.162;2022-12-07T10:37:57;7.00;95.50
292;DHT22;23311;48.776;9.162;2022-12-07T10:40:30;7.00;95.20
292;DHT22;23311;48.776;9.162;2022-12-07T10:43:05;7.00;95.20
292;DHT22;23311;48.776;9.162;2022-12-07T10:45:35;7.00;95.50
292;DHT22;23311;48.776;9.162;2022-12-07T10:48:33;6.90;95.50
292;DHT22;23311;48.776;9.162;2022-12-07T10:51:12;6.30;95.50
292;DHT22;23311;48.776;9.162;2022-12-07T10:53:57;6.00;95.50
292;DHT22;23311;48.776;9.162;2022-12-07T10:56:54;6.00;95.50
292;DHT22;23311;48.776;9.162;2022-12-07T11:02:26;6.20;95.50
292;DHT22;23311;48.776;9.162;2022-12-07T11:05:09;6.30;95.50
292;DHT22;23311;48.776;9.162;2022-12-07T11:07:47;6.20;95.50
292;DHT22;23311;48.776;9.162;2022-12-07T11:10:26;6.20;95.50
292;DHT22;23311;48.776;9.162;2022-12-07T11:13:14;6.30;95.50
292;DHT22;23311;48.776;9.162;2022-12-07T11:15:59;6.40;95.50
292;DHT22;23311;48.776;9.162;2022-12-07T11:18:37;6.40;95.50
292;DHT22;23311;48.776;9.162;2022-12-07T11:21:11;6.50;95.50
292;DHT22;23311;48.776;9.162;2022-12-07T11:23:48;6.30;95.50
292;DHT22;23311;48.776;9.162;2022-12-07T11:26:25;6.10;95.50
292;DHT22;23311;48.776;9.162;2022-12-07T11:29:06;6.00;95.50
292;DHT22;23311;48.776;9.162;2022-12-07T11:31:49;6.00;95.50
292;DHT22;23311;48.776;9.162;2022-12-07T11:34:28;6.00;95.50
292;DHT22;23311;48.776;9.162;2022-12-07T11:37:02;6.00;95.50
292;DHT22;23311;48.776;9.162;2022-12-07T11:39:35;6.10;95.50
292;DHT22;23311;48.776;9.162;2022-12-07T11:42:09;6.00;95.50
292;DHT22;23311;48.776;9.162;2022-12-07T11:44:50;6.00;95.50
292;DHT22;23311;48.776;9.162;2022-12-07T11:47:25;6.00;95.50
292;DHT22;23311;48.776;9.162;2022-12-07T11:50:03;6.00;95.50
292;DHT22;23311;48.776;9.162;2022-12-07T11:52:43;5.90;95.50
292;DHT22;23311;48.776;9.162;2022-12-07T11:55:19;5.90;95.50
292;DHT22;23311;48.776;9.162;2022-12-07T11:57:54;5.90;95.50
292;DHT22;23311;48.776;9.162;2022-12-07T12:00:25;5.90;95.50
292;DHT22;23311;48.776;9.162;2022-12-07T12:02:59;5.70;95.50
292;DHT22;23311;48.776;9.162;2022-12-07T12:05:30;5.70;95.50
292;DHT22;23311;48.776;9.162;2022-12-07T12:08:03;5.50;95.50
292;DHT22;23311;48.776;9.162;2022-12-07T12:10:58;5.50;95.50
292;DHT22;23311;48.776;9.162;2022-12-07T12:14:04;5.50;95.50
292;DHT22;23311;48.776;9.162;2022-12-07T12:17:36;5.30;95.50
292;DHT22;23311;48.776;9.162;2022-12-07T12:20:17;5.30;95.50
292;DHT22;23311;48.776;9.162;2022-12-07T12:22:51;5.30;95.50
292;DHT22;23311;48.776;9.162;2022-12-07T12:25:23;5.30;95.50
292;DHT22;23311;48.776;9.162;2022-12-07T12:27:54;5.40;95.50
292;DHT22;23311;48.776;9.162;2022-12-07T12:30:32;5.30;95.50
292;DHT22;23311;48.776;9.162;2022-12-07T12:33:12;5.30;95.50
292;DHT22;23311;48.776;9.162;2022-12-07T12:35:41;5.40;95.50
292;DHT22;23311;48.776;9.162;2022-12-07T12:38:32;5.40;95.50
292;DHT22;23311;48.776;9.162;2022-12-07T12:41:01;5.40;95.50
292;DHT22;23311;48.776;9.162;2022-12-07T12:43:51;5.50;95.50
292;DHT22;23311;48.776;9.162;2022-12-07T12:46:50;5.50;95.50
292;DHT22;23311;48.776;9.162;2022-12-07T12:49:44;5.30;95.50
292;DHT22;23311;48.776;9.162;2022-12-07T12:52:55;5.40;95.50
292;DHT22;23311;48.776;9.162;2022-12-07T12:56:07;5.60;95.50
292;DHT22;23311;48.776;9.162;2022-12-07T12:58:40;5.50;95.50
292;DHT22;23311;48.776;9.162;2022-12-07T13:01:36;5.50;95.50
292;DHT22;23311;48.776;9.162;2022-12-07T13:04:23;5.70;95.50
292;DHT22;23311;48.776;9.162;2022-12-07T13:06:52;6.00;95.50
292;DHT22;23311;48.776;9.162;2022-12-07T13:09:24;6.00;95.50
292;DHT22;23311;48.776;9.162;2022-12-07T13:12:00;6.10;95.50
292;DHT22;23311;48.776;9.162;2022-12-07T13:14:58;6.10;95.50
292;DHT22;23311;48.776;9.162;2022-12-07T13:17:58;5.90;95.50
292;DHT22;23311;48.776;9.162;2022-12-07T13:20:50;5.90;95.50
292;DHT22;23311;48.776;9.162;2022-12-07T13:23:20;5.90;95.50
292;DHT22;23311;48.776;9.162;2022-12-07T13:25:56;5.90;95.50
292;DHT22;23311;48.776;9.162;2022-12-07T13:28:33;6.00;95.50
292;DHT22;23311;48.776;9.162;2022-12-07T13:33:57;5.90;95.50
292;DHT22;23311;48.776;9.162;2022-12-07T13:36:27;5.80;95.50
292;DHT22;23311;48.776;9.162;2022-12-07T13:38:57;5.80;95.50
292;DHT22;23311;48.776;9.162;2022-12-07T13:41:28;5.80;95.50
292;DHT22;23311;48.776;9.162;2022-12-07T13:44:01;5.70;95.50
292;DHT22;23311;48.776;9.162;2022-12-07T13:46:43;5.60;95.50
292;DHT22;23311;48.776;9.162;2022-12-07T13:49:18;5.70;95.50
292;DHT22;23311;48.776;9.162;2022-12-07T13:51:47;5.70;95.50
292;DHT22;23311;48.776;9.162;2022-12-07T13:54:15;5.70;95.50
292;DHT22;23311;48.776;9.162;2022-12-07T13:56:48;5.70;95.50
292;DHT22;23311;48.776;9.162;2022-12-07T13:59:19;5.60;95.50
292;DHT22;23311;48.776;9.162;2022-12-07T14:01:54;5.60;95.50
292;DHT22;23311;48.776;9.162;2022-12-07T14:04:33;5.60;95.50
292;DHT22;23311;48.776;9.162;2022-12-07T14:07:23;5.70;95.50
292;DHT22;23311;48.776;9.162;2022-12-07T14:10:23;5.80;95.50
292;DHT22;23311;48.776;9.162;2022-12-07T14:12:55;5.70;95.50
292;DHT22;23311;48.776;9.162;2022-12-07T14:15:43;5.80;95.50
292;DHT22;23311;48.776;9.162;2022-12-07T14:18:26;5.70;95.50
292;DHT22;23311;48.776;9.162;2022-12-07T14:21:21;5.70;95.50
292;DHT22;23311;48.776;9.162;2022-12-07T14:24:15;5.50;95.50
292;DHT22;23311;48.776;9.162;2022-12-07T14:26:50;5.40;95.50
292;DHT22;23311;48.776;9.162;2022-12-07T14:29:30;5.20;95.50
292;DHT22;23311;48.776;9.162;2022-12-07T14:32:17;5.20;95.50
292;DHT22;23311;48.776;9.162;2022-12-07T14:34:57;5.20;95.50
292;DHT22;23311;48.776;9.162;2022-12-07T14:37:28;5.10;95.50
292;DHT22;23311;48.776;9.162;2022-12-07T14:39:57;5.20;95.50
292;DHT22;23311;48.776;9.162;2022-12-07T14:42:28;5.20;95.50
292;DHT22;23311;48.776;9.162;2022-12-07T14:44:58;5.20;95.50
292;DHT22;23311;48.776;9.162;2022-12-07T14:47:27;5.20;95.50
292;DHT22;23311;48.776;9.162;2022-12-07T14:50:17;5.20;95.50
292;DHT22;23311;48.776;9.162;2022-12-07T14:52:47;5.30;95.50
292;DHT22;23311;48.776;9.162;2022-12-07T14:55:36;5.30;95.50
292;DHT22;23311;48.776;9.162;2022-12-07T14:58:04;5.20;95.50
292;DHT22;23311;48.776;9.162;2022-12-07T15:00:33;5.30;95.50
292;DHT22;23311;48.776;9.162;2022-12-07T15:03:01;5.30;95.50
292;DHT22;23311;48.776;9.162;2022-12-07T15:05:30;5.20;95.50
292;DHT22;23311;48.776;9.162;2022-12-07T15:07:58;5.20;95.50
292;DHT22;23311;48.776;9.162;2022-12-07T15:10:28;5.20;95.50
292;DHT22;23311;48.776;9.162;2022-12-07T15:12:58;5.10;95.50
292;DHT22;23311;48.776;9.162;2022-12-07T15:15:49;5.00;95.50
292;DHT22;23311;48.776;9.162;2022-12-07T15:18:19;4.90;95.50
292;DHT22;23311;48.776;9.162;2022-12-07T15:20:47;4.80;95.50
292;DHT22;23311;48.776;9.162;2022-12-07T15:23:15;4.80;95.50
292;DHT22;23311;48.776;9.162;2022-12-07T15:25:45;4.80;95.50
292;DHT22;23311;48.776;9.162;2022-12-07T15:28:13;4.70;95.50
292;DHT22;23311;48.776;9.162;2022-12-07T15:30:43;4.80;95.50
292;DHT22;23311;48.776;9.162;2022-12-07T15:33:13;4.70;95.50
292;DHT22;23311;48.776;9.162;2022-12-07T15:35:42;4.70;95.50
292;DHT22;23311;48.776;9.162;2022-12-07T15:38:11;4.60;95.50
292;DHT22;23311;48.776;9.162;2022-12-07T15:40:39;4.60;95.50
292;DHT22;23311;48.776;9.162;2022-12-07T15:43:08;4.60;95.50
292;DHT22;23311;48.776;9.162;2022-12-07T15:45:57;4.60;95.50
292;DHT22;23311;48.776;9.162;2022-12-07T15:48:26;4.60;95.50
292;DHT22;23311;48.776;9.162;2022-12-07T15:51:01;4.50;95.50
292;DHT22;23311;48.776;9.162;2022-12-07T15:53:30;4.50;95.50
292;DHT22;23311;48.776;9.162;2022-12-07T15:55:58;4.50;95.50
292;DHT22;23311;48.776;9.162;2022-12-07T15:58:29;4.40;95.50
292;DHT22;23311;48.776;9.162;2022-12-07T16:00:58;4.30;95.50
292;DHT22;23311;48.776;9.162;2022-12-07T16:03:28;4.20;95.50
292;DHT22;23311;48.776;9.162;2022-12-07T16:05:56;4.20;95.50
292;DHT22;23311;48.776;9.162;2022-12-07T16:08:27;4.20;95.50
292;DHT22;23311;48.776;9.162;2022-12-07T16:11:04;4.20;95.50
292;DHT22;23311;48.776;9.162;2022-12-07T16:13:33;4.20;95.50
292;DHT22;23311;48.776;9.162;2022-12-07T16:16:03;4.20;95.50
292;DHT22;23311;48.776;9.162;2022-12-07T16:18:33;4.20;95.50
292;DHT22;23311;48.776;9.162;2022-12-07T16:21:02;4.20;95.50
292;DHT22;23311;48.776;9.162;2022-12-07T16:23:31;4.10;95.50
292;DHT22;23311;48.776;9.162;2022-12-07T16:26:06;4.10;95.50
292;DHT22;23311;48.776;9.162;2022-12-07T16:28:35;4.10;95.50
292;DHT22;23311;48.776;9.162;2022-12-07T16:31:04;4.10;95.50
292;DHT22;23311;48.776;9.162;2022-12-07T16:33:36;4.10;95.50
292;DHT22;23311;48.776;9.162;2022-12-07T16:36:06;4.00;95.50
292;DHT22;23311;48.776;9.162;2022-12-07T16:38:36;4.00;95.50
292;DHT22;23311;48.776;9.162;2022-12-07T16:41:05;4.00;95.50
292;DHT22;23311;48.776;9.162;2022-12-07T16:43:34;3.90;95.50
292;DHT22;23311;48.776;9.162;2022-12-07T16:46:02;3.70;95.50
292;DHT22;23311;48.776;9.162;2022-12-07T16:48:31;3.60;95.50
292;DHT22;23311;48.776;9.162;2022-12-07T16:51:03;3.40;95.50
292;DHT22;23311;48.776;9.162;2022-12-07T16:53:31;3.40;95.50
292;DHT22;23311;48.776;9.162;2022-12-07T16:55:59;3.40;95.50
292;DHT22;23311;48.776;9.162;2022-12-07T16:58:28;3.30;95.50
292;DHT22;23311;48.776;9.162;2022-12-07T17:00:56;3.20;95.50
292;DHT22;23311;48.776;9.162;2022-12-07T17:03:24;3.20;95.50